createdAt,value
2017-05-07T00:01:50.666Z,8.70
2017-05-07T00:04:17.809Z,8.70
2017-05-07T00:06:44.961Z,8.60
2017-05-07T00:09:14.211Z,8.60
2017-05-07T00:11:41.341Z,8.60
2017-05-07T00:14:08.486Z,8.60
2017-05-07T00:16:36.727Z,8.60
2017-05-07T00:19:03.886Z,8.60
2017-05-07T00:21:31.043Z,8.60
2017-05-07T00:23:59.207Z,8.60
2017-05-07T00:26:26.358Z,8.60
2017-05-07T00:28:53.641Z,8.60
2017-05-07T00:31:22.138Z,8.60
2017-05-07T00:33:49.310Z,8.60
2017-05-07T00:36:16.470Z,8.60
2017-05-07T00:38:44.930Z,8.50
2017-05-07T00:41:12.069Z,8.50
2017-05-07T00:43:39.237Z,8.50
2017-05-07T00:46:06.398Z,8.50
2017-05-07T00:48:35.581Z,8.50
2017-05-07T00:51:04.011Z,8.50
2017-05-07T00:53:31.890Z,8.50
2017-05-07T00:55:59.034Z,8.50
2017-05-07T00:58:27.265Z,8.40
2017-05-07T01:00:54.412Z,8.50
2017-05-07T01:03:21.558Z,8.50
2017-05-07T01:05:49.022Z,8.50
2017-05-07T01:08:16.173Z,8.40
2017-05-07T01:10:43.329Z,8.50
2017-05-07T01:13:10.775Z,8.50
2017-05-07T01:15:37.921Z,8.50
2017-05-07T01:18:05.079Z,8.50
2017-05-07T01:20:33.357Z,8.40
2017-05-07T01:23:00.490Z,8.50
2017-05-07T01:25:27.646Z,8.40
2017-05-07T01:27:55.106Z,8.40
2017-05-07T01:30:22.245Z,8.50
2017-05-07T01:32:49.383Z,8.40
2017-05-07T01:35:17.878Z,8.40
2017-05-07T01:37:45.015Z,8.40
2017-05-07T01:40:12.167Z,8.40
2017-05-07T01:42:40.374Z,8.40
2017-05-07T01:45:07.518Z,8.40
2017-05-07T01:47:34.675Z,8.40
2017-05-07T01:50:02.209Z,8.40
2017-05-07T01:52:29.344Z,8.30
2017-05-07T01:54:56.497Z,8.30
2017-05-07T01:57:23.963Z,8.30
2017-05-07T01:59:51.352Z,8.30
2017-05-07T02:02:19.234Z,8.30
2017-05-07T02:04:48.218Z,8.30
2017-05-07T02:07:16.131Z,8.30
2017-05-07T02:09:43.298Z,8.30
2017-05-07T02:12:10.849Z,8.40
2017-05-07T02:14:37.990Z,8.30
2017-05-07T02:17:05.130Z,8.30
2017-05-07T02:19:32.610Z,8.30
2017-05-07T02:21:59.762Z,8.30
2017-05-07T02:24:26.901Z,8.30
2017-05-07T02:26:55.096Z,8.30
2017-05-07T02:29:22.262Z,8.30
2017-05-07T02:31:50.133Z,8.30
2017-05-07T02:34:18.578Z,8.30
2017-05-07T02:36:45.721Z,8.30
2017-05-07T02:39:12.869Z,8.30
2017-05-07T02:41:41.353Z,8.30
2017-05-07T02:44:08.485Z,8.30
2017-05-07T02:46:35.653Z,8.30
2017-05-07T02:49:03.110Z,8.30
2017-05-07T02:51:30.263Z,8.30
2017-05-07T02:53:59.135Z,8.20
2017-05-07T02:56:27.327Z,8.20
2017-05-07T02:58:54.458Z,8.20
2017-05-07T03:01:21.665Z,8.30
2017-05-07T03:03:49.213Z,8.20
2017-05-07T03:06:17.099Z,8.20
2017-05-07T03:08:44.269Z,8.30
2017-05-07T03:11:11.758Z,8.20
2017-05-07T03:13:39.662Z,8.20
2017-05-07T03:16:06.825Z,8.20
2017-05-07T03:18:35.214Z,8.20
2017-05-07T03:21:02.374Z,8.20
2017-05-07T03:23:29.503Z,8.20
2017-05-07T03:25:56.999Z,8.20
2017-05-07T03:28:24.134Z,8.20
2017-05-07T03:30:51.274Z,8.20
2017-05-07T03:33:18.760Z,8.20
2017-05-07T03:35:45.924Z,8.10
2017-05-07T03:38:13.091Z,8.20
2017-05-07T03:40:41.331Z,8.20
2017-05-07T03:43:08.476Z,8.10
2017-05-07T03:45:35.607Z,8.10
2017-05-07T03:48:03.089Z,8.10
2017-05-07T03:50:31.245Z,8.10
2017-05-07T03:52:58.390Z,8.10
2017-05-07T03:55:26.550Z,8.10
2017-05-07T03:57:53.697Z,8.10
2017-05-07T04:00:20.870Z,8.10
2017-05-07T04:02:48.341Z,8.20
2017-05-07T04:05:15.487Z,8.20
2017-05-07T04:07:42.618Z,8.10
2017-05-07T04:10:10.094Z,8.10
2017-05-07T04:12:37.227Z,8.10
2017-05-07T04:15:04.373Z,8.10
2017-05-07T04:17:32.674Z,8.10
2017-05-07T04:19:59.810Z,8.10
2017-05-07T04:22:26.950Z,8.10
2017-05-07T04:24:54.425Z,8.10
2017-05-07T04:27:21.570Z,8.10
2017-05-07T04:29:48.713Z,8.20
2017-05-07T04:32:16.280Z,8.20
2017-05-07T04:34:43.418Z,8.10
2017-05-07T04:37:10.561Z,8.20
2017-05-07T04:39:37.992Z,8.10
2017-05-07T04:42:05.137Z,8.10
2017-05-07T04:44:32.270Z,8.10
2017-05-07T04:47:01.398Z,8.10
2017-05-07T04:49:28.525Z,8.10
2017-05-07T04:51:57.450Z,8.10
2017-05-07T04:54:25.697Z,8.10
2017-05-07T04:56:52.837Z,8.10
2017-05-07T04:59:19.978Z,8.20
2017-05-07T05:01:48.154Z,8.10
2017-05-07T05:04:16.046Z,8.10
2017-05-07T05:06:43.192Z,8.10
2017-05-07T05:09:11.618Z,8.10
2017-05-07T05:11:38.754Z,8.10
2017-05-07T05:14:05.904Z,8.20
2017-05-07T05:16:33.465Z,8.20
2017-05-07T05:19:19.797Z,8.20
2017-05-07T05:22:09.234Z,8.10
2017-05-07T05:25:14.022Z,8.10
2017-05-07T05:28:18.282Z,8.10
2017-05-07T05:30:49.910Z,8.10
2017-05-07T05:33:17.065Z,8.10
2017-05-07T05:35:45.282Z,8.10
2017-05-07T05:38:12.442Z,8.10
2017-05-07T05:40:39.598Z,8.10
2017-05-07T05:43:07.838Z,8.20
2017-05-07T05:45:35.014Z,8.20
2017-05-07T05:48:02.902Z,8.10
2017-05-07T05:50:31.133Z,8.20
2017-05-07T05:52:58.271Z,8.20
2017-05-07T05:55:25.722Z,8.20
2017-05-07T05:57:52.118Z,8.20
2017-05-07T06:00:19.982Z,8.20
2017-05-07T06:02:52.796Z,8.20
2017-05-07T06:05:19.942Z,8.30
2017-05-07T06:07:47.070Z,8.20
2017-05-07T06:10:15.486Z,8.30
2017-05-07T06:12:42.639Z,8.30
2017-05-07T06:15:09.795Z,8.30
2017-05-07T06:17:37.241Z,8.30
2017-05-07T06:20:05.396Z,8.30
2017-05-07T06:22:32.563Z,8.30
2017-05-07T06:25:00.745Z,8.30
2017-05-07T06:27:27.883Z,8.40
2017-05-07T06:29:55.021Z,8.40
2017-05-07T06:32:22.493Z,8.40
2017-05-07T06:34:49.664Z,8.40
2017-05-07T06:37:16.801Z,8.40
2017-05-07T06:39:44.250Z,8.40
2017-05-07T06:42:11.391Z,8.40
2017-05-07T06:44:38.537Z,8.40
2017-05-07T06:47:06.005Z,8.40
2017-05-07T06:49:33.138Z,8.40
2017-05-07T06:52:00.279Z,8.40
2017-05-07T06:54:27.764Z,8.40
2017-05-07T06:56:54.931Z,8.40
2017-05-07T06:59:22.834Z,8.50
2017-05-07T07:01:51.174Z,8.50
2017-05-07T07:04:18.327Z,8.50
2017-05-07T07:06:46.359Z,8.50
2017-05-07T07:09:15.196Z,8.60
2017-05-07T07:11:43.194Z,8.60
2017-05-07T07:14:10.350Z,8.70
2017-05-07T07:16:37.499Z,8.60
2017-05-07T07:19:04.982Z,8.70
2017-05-07T07:21:33.145Z,8.70
2017-05-07T07:24:00.265Z,8.70
2017-05-07T07:26:27.687Z,8.80
2017-05-07T07:28:54.878Z,8.80
2017-05-07T07:31:22.043Z,8.80
2017-05-07T07:33:49.209Z,8.90
2017-05-07T07:36:16.365Z,8.90
2017-05-07T07:38:43.823Z,8.90
2017-05-07T07:41:10.986Z,8.90
2017-05-07T07:43:38.879Z,8.90
2017-05-07T07:46:08.045Z,9.00
2017-05-07T07:48:35.982Z,8.90
2017-05-07T07:51:04.181Z,9.00
2017-05-07T07:53:31.326Z,9.10
2017-05-07T07:55:58.458Z,9.10
2017-05-07T07:58:26.741Z,9.00
2017-05-07T08:00:53.899Z,9.10
2017-05-07T08:03:21.034Z,9.10
2017-05-07T08:05:49.313Z,9.20
2017-05-07T08:08:16.465Z,9.20
2017-05-07T08:10:43.626Z,9.30
2017-05-07T08:13:11.059Z,9.30
2017-05-07T08:15:38.222Z,9.30
2017-05-07T08:18:05.378Z,9.30
2017-05-07T08:20:32.825Z,9.30
2017-05-07T08:22:59.969Z,9.40
2017-05-07T08:25:27.113Z,9.40
2017-05-07T08:27:54.689Z,9.50
2017-05-07T08:30:21.850Z,9.50
2017-05-07T08:32:49.771Z,9.40
2017-05-07T08:35:18.014Z,9.50
2017-05-07T08:37:45.277Z,9.60
2017-05-07T08:40:13.150Z,9.60
2017-05-07T08:42:40.654Z,9.70
2017-05-07T08:45:07.793Z,9.60
2017-05-07T08:47:34.930Z,9.70
2017-05-07T08:50:02.416Z,9.80
2017-05-07T08:52:29.537Z,9.60
2017-05-07T08:54:56.674Z,9.70
2017-05-07T08:57:24.170Z,9.70
2017-05-07T08:59:51.318Z,9.70
2017-05-07T09:02:18.453Z,9.70
2017-05-07T09:04:45.922Z,9.80
2017-05-07T09:07:13.050Z,9.90
2017-05-07T09:09:40.180Z,9.90
2017-05-07T09:12:11.683Z,10.00
2017-05-07T09:14:54.646Z,10.20
2017-05-07T09:17:53.453Z,10.10
2017-05-07T09:20:27.458Z,10.00
2017-05-07T09:22:55.750Z,10.30
2017-05-07T09:25:22.890Z,10.20
2017-05-07T09:27:50.017Z,10.20
2017-05-07T09:30:29.549Z,10.10
2017-05-07T09:32:56.697Z,9.90
2017-05-07T09:35:24.578Z,10.10
2017-05-07T09:37:52.957Z,9.90
2017-05-07T09:40:20.081Z,10.00
2017-05-07T09:42:47.962Z,9.90
2017-05-07T09:45:15.467Z,10.20
2017-05-07T09:47:43.624Z,10.30
2017-05-07T09:50:10.765Z,10.40
2017-05-07T09:52:38.929Z,10.20
2017-05-07T09:55:06.079Z,10.10
2017-05-07T09:57:33.209Z,10.30
2017-05-07T10:00:01.435Z,10.20
2017-05-07T10:02:28.574Z,10.20
2017-05-07T10:04:55.729Z,10.10
2017-05-07T10:07:23.913Z,10.20
2017-05-07T10:09:51.037Z,10.40
2017-05-07T10:12:18.178Z,10.30
2017-05-07T10:14:45.668Z,10.40
2017-05-07T10:17:12.793Z,10.30
2017-05-07T10:19:39.914Z,10.40
2017-05-07T10:22:07.413Z,10.40
2017-05-07T10:24:34.557Z,10.20
2017-05-07T10:27:01.693Z,10.30
2017-05-07T10:29:29.171Z,10.30
2017-05-07T10:31:57.329Z,10.40
2017-05-07T10:34:24.470Z,10.50
2017-05-07T10:36:52.635Z,10.50
2017-05-07T10:39:19.777Z,10.30
2017-05-07T10:41:46.955Z,10.30
2017-05-07T10:44:14.425Z,10.50
2017-05-07T10:46:41.562Z,10.70
2017-05-07T10:49:08.703Z,10.80
2017-05-07T10:51:36.173Z,10.70
2017-05-07T10:54:03.326Z,10.50
2017-05-07T10:56:30.478Z,10.50
2017-05-07T10:58:58.829Z,10.60
2017-05-07T11:01:25.969Z,10.60
2017-05-07T11:03:53.121Z,10.90
2017-05-07T11:06:20.817Z,10.60
2017-05-07T11:08:48.074Z,10.50
2017-05-07T11:11:15.227Z,10.60
2017-05-07T11:13:42.407Z,10.60
2017-05-07T11:16:10.306Z,10.50
2017-05-07T11:18:37.730Z,10.60
2017-05-07T11:21:04.899Z,10.40
2017-05-07T11:23:32.049Z,10.40
2017-05-07T11:25:59.214Z,10.40
2017-05-07T11:28:26.371Z,10.30
2017-05-07T11:30:53.537Z,10.30
2017-05-07T11:33:20.878Z,10.30
2017-05-07T11:35:49.086Z,10.20
2017-05-07T11:38:16.249Z,10.30
2017-05-07T11:40:44.197Z,10.30
2017-05-07T11:43:11.743Z,10.30
2017-05-07T11:45:38.865Z,10.20
2017-05-07T11:48:07.014Z,10.20
2017-05-07T11:50:34.462Z,10.30
2017-05-07T11:53:02.349Z,10.20
2017-05-07T11:55:29.493Z,10.40
2017-05-07T11:57:56.992Z,10.40
2017-05-07T12:00:24.289Z,10.30
2017-05-07T12:02:52.165Z,10.30
2017-05-07T12:05:19.670Z,10.40
2017-05-07T12:07:46.821Z,10.30
2017-05-07T12:10:13.971Z,10.30
2017-05-07T12:12:41.126Z,10.30
2017-05-07T12:15:08.301Z,10.30
2017-05-07T12:17:35.491Z,10.40
2017-05-07T12:20:03.642Z,10.40
2017-05-07T12:22:31.146Z,10.40
2017-05-07T12:24:58.269Z,10.40
2017-05-07T12:27:26.442Z,10.50
2017-05-07T12:29:53.876Z,10.60
2017-05-07T12:32:21.010Z,10.80
2017-05-07T12:34:49.501Z,10.70
2017-05-07T12:37:17.007Z,10.80
2017-05-07T12:39:44.165Z,10.80
2017-05-07T12:42:11.307Z,10.90
2017-05-07T12:44:38.769Z,10.90
2017-05-07T12:47:05.898Z,11.10
2017-05-07T12:49:33.030Z,10.90
2017-05-07T12:52:00.466Z,11.00
2017-05-07T12:54:28.337Z,10.90
2017-05-07T12:56:55.485Z,10.90
2017-05-07T12:59:22.992Z,11.00
2017-05-07T13:01:50.126Z,11.00
2017-05-07T13:04:17.270Z,10.80
2017-05-07T13:06:44.689Z,10.90
2017-05-07T13:09:12.578Z,10.90
2017-05-07T13:11:40.865Z,11.00
2017-05-07T13:14:08.353Z,11.00
2017-05-07T13:16:36.262Z,11.00
2017-05-07T13:19:04.295Z,11.10
2017-05-07T13:21:31.737Z,11.20
2017-05-07T13:23:58.895Z,11.30
2017-05-07T13:26:26.051Z,11.40
2017-05-07T13:28:54.282Z,11.40
2017-05-07T13:31:21.430Z,11.50
2017-05-07T13:33:48.566Z,11.60
2017-05-07T13:36:15.750Z,11.40
2017-05-07T13:38:42.889Z,11.30
2017-05-07T13:41:10.021Z,11.30
2017-05-07T13:43:37.521Z,11.10
2017-05-07T13:46:04.662Z,11.20
2017-05-07T13:48:35.993Z,11.10
2017-05-07T13:51:03.486Z,11.00
2017-05-07T13:53:30.658Z,10.90
2017-05-07T13:55:58.589Z,10.90
2017-05-07T13:58:26.045Z,10.80
2017-05-07T14:00:53.205Z,10.70
2017-05-07T14:03:20.748Z,10.80
2017-05-07T14:05:47.914Z,10.80
2017-05-07T14:08:15.078Z,10.90
2017-05-07T14:10:42.232Z,11.10
2017-05-07T14:13:10.122Z,11.20
2017-05-07T14:15:38.650Z,11.20
2017-05-07T14:18:05.798Z,11.20
2017-05-07T14:20:33.945Z,11.30
2017-05-07T14:23:02.142Z,11.50
2017-05-07T14:25:29.306Z,11.50
2017-05-07T14:27:56.446Z,11.40
2017-05-07T14:30:24.917Z,11.40
2017-05-07T14:32:52.881Z,11.70
2017-05-07T14:35:20.015Z,11.70
2017-05-07T14:37:47.513Z,11.70
2017-05-07T14:40:14.651Z,11.90
2017-05-07T14:42:41.774Z,11.70
2017-05-07T14:45:09.317Z,11.90
2017-05-07T14:47:37.845Z,12.00
2017-05-07T14:50:04.977Z,11.70
2017-05-07T14:52:33.166Z,11.70
2017-05-07T14:55:00.298Z,11.70
2017-05-07T14:57:27.449Z,11.50
2017-05-07T14:59:54.907Z,11.30
2017-05-07T15:02:22.041Z,11.40
2017-05-07T15:04:49.191Z,11.30
2017-05-07T15:07:16.664Z,11.30
2017-05-07T15:09:43.810Z,11.30
2017-05-07T15:12:10.962Z,11.60
2017-05-07T15:14:38.414Z,11.90
2017-05-07T15:17:05.552Z,11.70
2017-05-07T15:19:32.677Z,11.70
2017-05-07T15:22:00.173Z,11.60
2017-05-07T15:24:27.334Z,11.60
2017-05-07T15:26:54.462Z,11.40
2017-05-07T15:29:21.601Z,11.30
2017-05-07T15:31:48.734Z,11.50
2017-05-07T15:34:16.871Z,11.30
2017-05-07T15:36:44.045Z,11.40
2017-05-07T15:39:11.177Z,11.20
2017-05-07T15:41:39.462Z,11.20
2017-05-07T15:44:06.670Z,11.10
2017-05-07T15:46:33.840Z,11.10
2017-05-07T15:49:01.386Z,11.10
2017-05-07T15:51:28.542Z,11.10
2017-05-07T15:53:55.722Z,11.10
2017-05-07T15:56:23.748Z,11.10
2017-05-07T15:58:50.906Z,11.20
2017-05-07T16:01:18.355Z,11.00
2017-05-07T16:03:45.493Z,11.10
2017-05-07T16:06:12.658Z,11.00
2017-05-07T16:08:40.989Z,11.00
2017-05-07T16:11:08.125Z,11.00
2017-05-07T16:13:35.261Z,10.90
2017-05-07T16:22:29.757Z,10.70
2017-05-07T16:25:11.906Z,10.70
2017-05-07T16:27:56.773Z,10.80
2017-05-07T16:30:27.625Z,10.60
2017-05-07T16:33:02.809Z,10.60
2017-05-07T16:35:31.623Z,10.50
2017-05-07T16:37:58.677Z,10.60
2017-05-07T16:40:26.957Z,10.50
2017-05-07T16:42:54.022Z,10.50
2017-05-07T16:45:21.086Z,10.50
2017-05-07T16:47:49.477Z,10.40
2017-05-07T16:50:16.545Z,10.40
2017-05-07T16:52:44.345Z,10.30
2017-05-07T16:55:12.775Z,10.30
2017-05-07T16:57:40.578Z,10.30
2017-05-07T17:00:07.646Z,10.30
2017-05-07T17:02:41.087Z,10.30
2017-05-07T17:05:08.889Z,10.20
2017-05-07T17:07:35.968Z,10.20
2017-05-07T17:10:03.345Z,10.20
2017-05-07T17:12:30.405Z,10.20
2017-05-07T17:14:58.195Z,10.10
2017-05-07T17:17:25.609Z,10.10
2017-05-07T17:19:52.669Z,10.10
2017-05-07T17:22:20.491Z,10.00
2017-05-07T17:24:48.709Z,10.10
2017-05-07T17:27:16.514Z,10.00
2017-05-07T17:29:43.650Z,10.00
2017-05-07T17:32:11.183Z,9.90
2017-05-07T17:34:38.333Z,9.90
2017-05-07T17:37:05.468Z,9.90
2017-05-07T17:39:32.974Z,9.90
2017-05-07T17:42:00.123Z,9.90
2017-05-07T17:44:27.290Z,9.90
2017-05-07T17:46:54.493Z,9.90
2017-05-07T17:49:22.417Z,9.80
2017-05-07T17:51:49.582Z,9.80
2017-05-07T17:54:17.729Z,9.70
2017-05-07T17:56:44.871Z,9.70
2017-05-07T17:59:12.036Z,9.70
2017-05-07T18:01:40.443Z,9.60
2017-05-07T18:04:07.622Z,9.50
2017-05-07T18:06:35.500Z,9.50
2017-05-07T18:09:03.399Z,9.50
2017-05-07T18:11:30.588Z,9.50
2017-05-07T18:13:57.746Z,9.40
2017-05-07T18:16:26.918Z,9.40
2017-05-07T18:18:54.370Z,9.40
2017-05-07T18:21:21.514Z,9.40
2017-05-07T18:23:48.678Z,9.30
2017-05-07T18:26:16.231Z,9.40
2017-05-07T18:28:43.362Z,9.30
2017-05-07T18:31:10.529Z,9.30
2017-05-07T18:33:37.665Z,9.30
2017-05-07T18:36:04.810Z,9.30
2017-05-07T18:38:31.934Z,9.30
2017-05-07T18:40:59.709Z,9.30
2017-05-07T18:43:28.715Z,9.30
2017-05-07T18:45:55.857Z,9.30
2017-05-07T18:48:23.050Z,9.30
2017-05-07T18:50:51.574Z,9.30
2017-05-07T18:53:19.752Z,9.20
2017-05-07T18:55:47.250Z,9.20
2017-05-07T18:58:14.434Z,9.10
2017-05-07T19:00:43.362Z,9.10
2017-05-07T19:03:12.665Z,9.10
2017-05-07T19:05:41.450Z,9.00
2017-05-07T19:08:11.021Z,9.00
2017-05-07T19:10:39.845Z,8.90
2017-05-07T19:13:06.993Z,9.00
2017-05-07T19:15:34.174Z,9.00
2017-05-07T19:18:01.507Z,9.00
2017-05-07T19:20:34.163Z,9.00
2017-05-07T19:23:01.488Z,9.00
2017-05-07T19:25:30.040Z,8.90
2017-05-07T19:27:57.257Z,9.00
2017-05-07T19:30:24.449Z,8.90
2017-05-07T19:32:52.553Z,8.90
2017-05-07T19:35:20.437Z,8.90
2017-05-07T19:37:47.605Z,8.90
2017-05-07T19:40:14.757Z,8.90
2017-05-07T19:42:42.016Z,8.90
2017-05-07T19:45:09.178Z,8.90
2017-05-07T19:47:36.495Z,8.90
2017-05-07T19:50:03.771Z,8.90
2017-05-07T19:52:31.298Z,8.90
2017-05-07T19:54:58.454Z,8.90
2017-05-07T19:57:25.632Z,8.90
2017-05-07T19:59:55.106Z,8.90
2017-05-07T20:02:22.370Z,8.90
2017-05-07T20:04:49.530Z,8.90
2017-05-07T20:07:17.003Z,8.80
2017-05-07T20:09:44.151Z,8.80
2017-05-07T20:12:11.309Z,8.80
2017-05-07T20:14:38.855Z,8.80
2017-05-07T20:17:05.997Z,8.80
2017-05-07T20:19:33.158Z,8.80
2017-05-07T20:22:00.616Z,8.80
2017-05-07T20:24:27.757Z,8.80
2017-05-07T20:26:54.913Z,8.70
2017-05-07T20:29:23.105Z,8.70
2017-05-07T20:31:50.239Z,8.70
2017-05-07T20:34:17.385Z,8.70
2017-05-07T20:36:44.829Z,8.80
2017-05-07T20:39:11.973Z,8.70
2017-05-07T20:41:39.141Z,8.70
2017-05-07T20:44:07.625Z,8.70
2017-05-07T20:46:34.789Z,8.70
2017-05-07T20:49:02.945Z,8.70
2017-05-07T20:51:30.501Z,8.70
2017-05-07T20:53:57.634Z,8.70
2017-05-07T20:56:24.777Z,8.70
2017-05-07T20:58:53.131Z,8.70
2017-05-07T21:01:20.269Z,8.70
2017-05-07T21:03:47.442Z,8.70
2017-05-07T21:06:15.958Z,8.80
2017-05-07T21:08:43.127Z,8.70
2017-05-07T21:11:10.273Z,8.70
2017-05-07T21:13:38.425Z,8.70
2017-05-07T21:16:05.554Z,8.80
2017-05-07T21:18:32.778Z,8.70
2017-05-07T21:21:00.286Z,8.70
2017-05-07T21:23:27.435Z,8.70
2017-05-07T21:25:54.578Z,8.70
2017-05-07T21:28:22.042Z,8.70
2017-05-07T21:30:49.183Z,8.70
2017-05-07T21:33:17.329Z,8.70
2017-05-07T21:35:44.819Z,8.70
2017-05-07T21:38:11.974Z,8.70
2017-05-07T21:40:39.117Z,8.70
2017-05-07T21:43:07.351Z,8.70
2017-05-07T21:45:34.498Z,8.70
2017-05-07T21:48:01.634Z,8.70
2017-05-07T21:50:29.857Z,8.70
2017-05-07T21:52:57.002Z,8.70
2017-05-07T21:55:24.149Z,8.70
2017-05-07T21:57:51.620Z,8.70
2017-05-07T22:00:18.753Z,8.70
2017-05-07T22:02:45.901Z,8.80
2017-05-07T22:05:14.260Z,8.70
2017-05-07T22:07:41.491Z,8.70
2017-05-07T22:10:08.696Z,8.70
2017-05-07T22:12:36.951Z,8.70
2017-05-07T22:15:04.165Z,8.70
2017-05-07T22:17:31.378Z,8.70
2017-05-07T22:19:58.964Z,8.70
2017-05-07T22:22:27.932Z,8.70
2017-05-07T22:24:55.884Z,8.70
2017-05-07T22:27:24.316Z,8.70
2017-05-07T22:29:51.504Z,8.80
2017-05-07T22:32:18.712Z,8.70
2017-05-07T22:34:46.977Z,8.70
2017-05-07T22:37:14.897Z,8.70
2017-05-07T22:39:42.095Z,8.70
2017-05-07T22:42:10.384Z,8.70
2017-05-07T22:44:37.579Z,8.80
2017-05-07T22:47:04.784Z,8.70
2017-05-07T22:49:33.308Z,8.80
2017-05-07T22:52:00.551Z,8.70
2017-05-07T22:54:27.744Z,8.70
2017-05-07T22:56:55.236Z,8.70
2017-05-07T22:59:22.444Z,8.70
2017-05-07T23:01:49.624Z,8.70
2017-05-07T23:04:19.008Z,8.80
2017-05-07T23:06:46.955Z,8.70
2017-05-07T23:09:14.181Z,8.70
2017-05-07T23:11:41.695Z,8.70
2017-05-07T23:14:09.653Z,8.70
2017-05-07T23:16:37.883Z,8.70
2017-05-07T23:19:05.394Z,8.70
2017-05-07T23:21:34.122Z,8.70
2017-05-07T23:24:01.308Z,8.70
2017-05-07T23:26:29.748Z,8.70
2017-05-07T23:28:56.951Z,8.60
2017-05-07T23:31:24.882Z,8.60
2017-05-07T23:33:52.386Z,8.60
2017-05-07T23:36:20.312Z,8.60
2017-05-07T23:38:47.540Z,8.70
2017-05-07T23:41:15.067Z,8.60
2017-05-07T23:43:42.993Z,8.60
2017-05-07T23:46:10.184Z,8.70
2017-05-07T23:48:39.456Z,8.70
2017-05-07T23:51:06.665Z,8.70
2017-05-07T23:53:33.860Z,8.70
2017-05-07T23:56:02.326Z,8.70
2017-05-07T23:58:29.510Z,8.70
